createdAt,value
2022-09-05T00:00:11.948Z,6.70
2022-09-05T00:05:48.401Z,6.66
2022-09-05T00:11:40.969Z,6.65
2022-09-05T00:17:10.208Z,6.59
2022-09-05T00:24:32.906Z,6.51
2022-09-05T00:30:55.298Z,6.45
2022-09-05T00:36:01.150Z,6.36
2022-09-05T00:41:22.328Z,6.30
2022-09-05T00:47:11.698Z,6.27
2022-09-05T00:53:07.276Z,6.26
2022-09-05T00:58:46.407Z,6.18
2022-09-05T01:04:27.875Z,6.11
2022-09-05T01:10:04.488Z,6.08
2022-09-05T01:15:33.788Z,6.05
2022-09-05T01:21:12.149Z,6.01
2022-09-05T01:27:17.123Z,5.95
2022-09-05T01:32:51.031Z,5.85
2022-09-05T01:38:27.337Z,5.79
2022-09-05T01:44:09.258Z,5.71
2022-09-05T01:49:48.349Z,5.58
2022-09-05T01:56:04.775Z,5.50
2022-09-05T02:01:40.164Z,5.48
2022-09-05T02:07:30.267Z,5.38
2022-09-05T02:13:05.615Z,5.30
2022-09-05T02:18:42.304Z,5.25
2022-09-05T02:24:18.069Z,5.21
2022-09-05T02:29:49.709Z,5.19
2022-09-05T02:35:09.848Z,5.19
2022-09-05T02:45:11.602Z,5.16
2022-09-05T02:46:33.724Z,5.10
2022-09-05T02:57:28.534Z,5.09
2022-09-05T02:58:05.498Z,5.03
2022-09-05T03:03:49.423Z,4.91
2022-09-05T03:09:55.979Z,4.83
2022-09-05T03:15:23.544Z,4.83
2022-09-05T03:21:09.508Z,4.85
2022-09-05T03:27:02.103Z,4.89
2022-09-05T03:32:50.017Z,4.92
2022-09-05T03:38:34.307Z,4.92
2022-09-05T03:44:18.560Z,4.89
2022-09-05T03:55:18.581Z,4.82
2022-09-05T03:57:11.365Z,4.77
2022-09-05T04:02:51.253Z,4.74
2022-09-05T04:08:20.924Z,4.70
2022-09-05T04:13:25.336Z,4.77
2022-09-05T04:19:10.489Z,4.96
2022-09-05T04:24:53.630Z,5.12
2022-09-05T04:30:39.722Z,5.23
2022-09-05T04:36:12.078Z,5.40
2022-09-05T04:41:46.866Z,5.54
2022-09-05T04:47:15.856Z,5.62
2022-09-05T04:52:57.682Z,5.69
2022-09-05T04:59:15.835Z,5.84
2022-09-05T05:06:13.501Z,6.03
2022-09-05T05:12:39.144Z,6.23
2022-09-05T05:18:11.814Z,6.42
2022-09-05T05:21:36.624Z,6.60
2022-09-05T05:27:38.258Z,6.84
2022-09-05T05:33:02.959Z,7.14
2022-09-05T05:38:40.341Z,7.36
2022-09-05T05:44:13.121Z,7.62
2022-09-05T05:49:39.562Z,7.91
2022-09-05T05:55:50.218Z,8.20
2022-09-05T06:01:37.163Z,8.59
2022-09-05T06:07:18.087Z,8.95
2022-09-05T06:14:59.175Z,9.24
2022-09-05T06:20:09.632Z,9.53
2022-09-05T06:25:47.741Z,9.86
2022-09-05T06:31:29.758Z,10.13
2022-09-05T06:37:01.617Z,10.36
2022-09-05T06:42:44.197Z,10.58
2022-09-05T06:48:21.445Z,10.90
2022-09-05T06:54:09.768Z,11.22
2022-09-05T06:59:49.044Z,11.44
2022-09-05T07:05:42.775Z,11.71
2022-09-05T07:11:24.229Z,12.08
2022-09-05T07:16:53.616Z,12.45
2022-09-05T07:22:48.477Z,12.77
2022-09-05T07:28:26.716Z,13.09
2022-09-05T07:33:51.311Z,13.33
2022-09-05T07:39:28.291Z,13.49
2022-09-05T07:44:59.421Z,13.68
2022-09-05T07:51:42.913Z,13.90
2022-09-05T07:56:52.760Z,14.08
2022-09-05T08:01:46.680Z,14.31
2022-09-05T08:07:49.848Z,14.49
2022-09-05T08:13:34.149Z,14.64
2022-09-05T08:18:53.126Z,14.78
2022-09-05T08:24:14.437Z,14.93
2022-09-05T08:29:42.432Z,15.05
2022-09-05T08:35:24.544Z,15.22
2022-09-05T08:41:04.014Z,15.37
2022-09-05T08:46:47.430Z,15.47
2022-09-05T08:52:33.789Z,15.68
2022-09-05T08:58:12.435Z,15.82
2022-09-05T09:04:13.170Z,15.90
2022-09-05T09:09:44.688Z,16.02
2022-09-05T09:15:35.392Z,16.15
2022-09-05T09:21:00.042Z,16.24
2022-09-05T09:26:28.919Z,16.42
2022-09-05T09:32:05.012Z,16.50
2022-09-05T09:37:50.524Z,16.56
2022-09-05T09:43:25.790Z,16.67
2022-09-05T09:49:23.769Z,16.85
2022-09-05T09:54:50.890Z,16.97
2022-09-05T10:00:24.041Z,17.13
2022-09-05T10:10:48.645Z,17.30
2022-09-05T10:12:34.867Z,17.48
2022-09-05T10:18:13.484Z,17.57
2022-09-05T10:23:49.716Z,17.41
2022-09-05T10:29:37.818Z,17.13
2022-09-05T10:35:22.231Z,17.25
2022-09-05T10:41:21.852Z,17.50
2022-09-05T10:46:55.301Z,17.72
2022-09-05T10:52:36.522Z,17.94
2022-09-05T10:58:15.451Z,18.16
2022-09-05T11:03:53.476Z,18.47
2022-09-05T11:09:31.989Z,18.59
2022-09-05T11:14:56.192Z,18.88
2022-09-05T11:20:34.444Z,19.33
2022-09-05T11:26:06.230Z,19.04
2022-09-05T11:32:19.107Z,18.32
2022-09-05T11:40:10.955Z,18.02
2022-09-05T11:43:52.982Z,18.41
2022-09-05T11:49:50.647Z,18.85
2022-09-05T11:55:32.991Z,19.15
2022-09-05T12:01:42.682Z,19.10
2022-09-05T12:07:26.927Z,18.83
2022-09-05T12:13:08.304Z,18.30
2022-09-05T12:18:42.639Z,17.90
2022-09-05T12:25:24.670Z,18.05
2022-09-05T12:30:13.936Z,18.17
2022-09-05T12:36:10.174Z,18.23
2022-09-05T12:42:14.156Z,18.47
2022-09-05T12:47:53.231Z,18.67
2022-09-05T12:53:18.569Z,18.84
2022-09-05T13:03:05.221Z,18.88
2022-09-05T13:04:32.196Z,19.04
2022-09-05T13:14:26.348Z,19.18
2022-09-05T13:15:51.126Z,19.30
2022-09-05T13:21:23.352Z,19.24
2022-09-05T13:26:53.377Z,19.53
2022-09-05T13:37:59.736Z,19.87
2022-09-05T13:38:48.107Z,20.00
2022-09-05T13:44:25.363Z,20.17
2022-09-05T13:49:53.668Z,20.62
2022-09-05T13:55:25.474Z,20.15
2022-09-05T14:01:22.459Z,19.65
2022-09-05T14:06:49.244Z,19.28
2022-09-05T14:12:49.917Z,18.82
2022-09-05T14:18:23.108Z,18.42
2022-09-05T14:23:56.479Z,19.10
2022-09-05T14:29:28.923Z,20.46
2022-09-05T14:37:44.745Z,21.56
2022-09-05T14:40:29.771Z,22.57
2022-09-05T14:46:07.650Z,22.95
2022-09-05T14:51:25.349Z,22.11
2022-09-05T15:01:18.221Z,22.96
2022-09-05T15:02:41.334Z,23.93
2022-09-05T15:07:47.564Z,24.40
2022-09-05T15:13:25.935Z,23.09
2022-09-05T15:18:48.420Z,22.69
2022-09-05T15:24:04.054Z,22.65
2022-09-05T15:29:14.858Z,23.55
2022-09-05T15:34:26.566Z,24.56
2022-09-05T15:39:33.675Z,24.98
2022-09-05T15:44:53.223Z,24.43
2022-09-05T15:50:04.851Z,24.85
2022-09-05T15:55:16.051Z,24.78
2022-09-05T16:00:33.926Z,24.10
2022-09-05T16:10:34.910Z,23.44
2022-09-05T16:12:00.487Z,24.32
2022-09-05T16:23:18.519Z,25.28
2022-09-05T16:23:32.267Z,25.57
2022-09-05T16:27:54.336Z,25.65
2022-09-05T16:33:00.723Z,25.77
2022-09-05T16:38:33.265Z,25.91
2022-09-05T16:43:53.370Z,25.92
2022-09-05T16:49:13.302Z,25.29
2022-09-05T16:54:34.721Z,24.74
2022-09-05T16:59:43.231Z,23.36
2022-09-05T17:05:06.008Z,21.36
2022-09-05T17:10:21.693Z,19.59
2022-09-05T17:15:38.383Z,18.20
2022-09-05T17:20:59.175Z,17.08
2022-09-05T17:29:23.730Z,16.19
2022-09-05T17:31:54.861Z,15.36
2022-09-05T17:37:22.580Z,14.64
2022-09-05T17:42:40.640Z,14.07
2022-09-05T17:47:52.140Z,13.57
2022-09-05T17:52:56.441Z,13.16
2022-09-05T17:58:22.257Z,12.81
2022-09-05T18:03:41.353Z,12.47
2022-09-05T18:08:48.032Z,12.14
2022-09-05T18:14:02.738Z,11.88
2022-09-05T18:19:32.911Z,11.66
2022-09-05T18:24:46.367Z,11.46
2022-09-05T18:30:05.985Z,11.30
2022-09-05T18:35:36.159Z,11.14
2022-09-05T18:40:58.639Z,10.98
2022-09-05T18:46:08.277Z,10.86
2022-09-05T18:51:22.041Z,10.72
2022-09-05T18:56:29.407Z,10.60
2022-09-05T19:01:55.158Z,10.49
2022-09-05T19:07:07.712Z,10.39
2022-09-05T19:12:35.005Z,10.30
2022-09-05T19:18:03.724Z,10.19
2022-09-05T19:23:29.857Z,10.10
2022-09-05T19:36:59.088Z,10.04
2022-09-05T19:37:05.765Z,9.95
2022-09-05T19:44:47.555Z,9.88
2022-09-05T19:47:41.359Z,9.81
2022-09-05T19:50:31.088Z,9.79
2022-09-05T19:55:38.425Z,9.74
2022-09-05T20:00:59.359Z,9.66
2022-09-05T20:06:03.379Z,9.55
2022-09-05T20:11:11.294Z,9.41
2022-09-05T20:16:14.585Z,9.25
2022-09-05T20:21:26.092Z,9.08
2022-09-05T20:26:33.735Z,8.91
2022-09-05T20:31:36.940Z,8.76
2022-09-05T20:43:10.163Z,8.69
2022-09-05T20:43:26.922Z,8.65
2022-09-05T20:50:44.427Z,8.61
2022-09-05T20:54:26.197Z,8.54
2022-09-05T20:58:32.001Z,8.40
2022-09-05T21:03:41.552Z,8.25
2022-09-05T21:08:51.012Z,8.11
2022-09-05T21:13:56.741Z,8.00
2022-09-05T21:18:59.765Z,7.95
2022-09-05T21:24:16.226Z,7.89
2022-09-05T21:29:33.335Z,7.79
2022-09-05T21:34:44.875Z,7.66
2022-09-05T21:39:59.208Z,7.56
2022-09-05T21:47:41.108Z,7.51
2022-09-05T21:50:31.143Z,7.43
2022-09-05T21:59:20.520Z,7.31
2022-09-05T22:00:57.976Z,7.22
2022-09-05T22:06:05.283Z,7.13
2022-09-05T22:11:12.911Z,7.05
2022-09-05T22:16:15.851Z,6.97
2022-09-05T22:21:32.862Z,6.89
2022-09-05T22:27:11.162Z,6.84
2022-09-05T22:32:09.066Z,6.75
2022-09-05T22:37:16.412Z,6.66
2022-09-05T22:42:19.138Z,6.56
2022-09-05T22:47:21.909Z,6.48
2022-09-05T22:52:24.758Z,6.36
2022-09-05T22:57:27.495Z,6.24
2022-09-05T23:02:30.247Z,6.17
2022-09-05T23:07:33.003Z,6.13
2022-09-05T23:12:36.981Z,6.09
2022-09-05T23:17:39.766Z,6.03
2022-09-05T23:22:43.193Z,5.98
2022-09-05T23:27:45.996Z,5.98
2022-09-05T23:32:50.561Z,5.94
2022-09-05T23:37:53.289Z,5.86
2022-09-05T23:42:58.007Z,5.76
2022-09-05T23:48:00.840Z,5.68
2022-09-05T23:53:04.779Z,5.58
2022-09-05T23:58:08.456Z,5.49
